createdAt,value
2019-05-07T00:02:04.755Z,18.12
2019-05-07T00:12:06.698Z,16.63
2019-05-07T00:22:08.774Z,15.25
2019-05-07T00:32:12.104Z,22.27
2019-05-07T00:42:14.308Z,19.00
2019-05-07T00:52:16.304Z,19.73
2019-05-07T01:02:18.307Z,16.17
2019-05-07T01:12:22.218Z,17.70
2019-05-07T01:22:24.047Z,19.65
2019-05-07T01:32:25.954Z,17.30
2019-05-07T01:42:27.954Z,15.30
2019-05-07T01:52:29.987Z,21.93
2019-05-07T02:02:33.122Z,15.70
2019-05-07T02:12:35.122Z,15.38
2019-05-07T02:22:37.098Z,17.33
2019-05-07T02:32:39.076Z,20.02
2019-05-07T02:42:44.078Z,17.30
2019-05-07T02:52:44.894Z,18.55
2019-05-07T03:02:46.865Z,21.73
2019-05-07T03:12:48.905Z,21.57
2019-05-07T03:22:53.669Z,22.93
2019-05-07T03:32:56.171Z,22.50
2019-05-07T03:43:01.608Z,22.82
2019-05-07T03:53:03.009Z,17.55
2019-05-07T04:13:06.632Z,20.32
2019-05-07T04:23:08.635Z,19.83
2019-05-07T04:33:13.068Z,22.70
2019-05-07T04:43:14.393Z,21.70
2019-05-07T04:53:16.448Z,24.60
2019-05-07T05:03:18.493Z,24.60
2019-05-07T05:13:23.244Z,21.87
2019-05-07T05:23:24.351Z,22.98
2019-05-07T05:33:26.364Z,32.00
2019-05-07T05:43:28.325Z,37.37
2019-05-07T05:53:32.546Z,37.30
2019-05-07T06:03:34.146Z,39.05
2019-05-07T06:13:36.146Z,33.40
2019-05-07T06:23:38.135Z,34.13
2019-05-07T06:33:40.063Z,37.33
2019-05-07T06:43:42.272Z,26.48
2019-05-07T06:53:44.350Z,27.60
2019-05-07T07:03:46.323Z,29.48
2019-05-07T07:13:48.774Z,36.67
2019-05-07T07:23:52.415Z,27.50
2019-05-07T07:33:54.416Z,26.00
2019-05-07T07:43:56.418Z,29.20
2019-05-07T07:53:58.388Z,29.10
2019-05-07T08:04:02.752Z,30.97
2019-05-07T08:14:05.052Z,31.55
2019-05-07T08:34:08.534Z,25.17
2019-05-07T08:44:14.537Z,22.97
2019-05-07T08:54:14.353Z,15.83
2019-05-07T09:04:16.361Z,22.07
2019-05-07T09:14:18.375Z,23.07
2019-05-07T09:24:22.193Z,20.63
2019-05-07T09:34:24.119Z,17.77
2019-05-07T09:44:26.155Z,29.37
2019-05-07T09:54:28.316Z,22.10
2019-05-07T10:04:32.587Z,19.50
2019-05-07T10:14:34.399Z,17.98
2019-05-07T10:24:36.467Z,17.00
2019-05-07T10:34:38.825Z,19.77
2019-05-07T10:44:43.170Z,17.12
2019-05-07T10:54:56.868Z,16.12
2019-05-07T11:04:48.678Z,14.33
2019-05-07T11:14:51.702Z,12.60
2019-05-07T11:24:53.752Z,16.37
2019-05-07T11:34:56.509Z,12.87
2019-05-07T11:44:58.652Z,12.85
2019-05-07T11:55:03.013Z,19.97
2019-05-07T12:05:04.585Z,16.25
2019-05-07T12:15:06.652Z,15.18
2019-05-07T12:25:08.611Z,13.30
2019-05-07T12:35:12.751Z,9.93
2019-05-07T12:45:14.872Z,12.80
2019-05-07T12:55:16.868Z,11.48
2019-05-07T13:05:18.828Z,10.58
2019-05-07T13:15:26.977Z,8.78
2019-05-07T13:25:28.184Z,13.22
2019-05-07T13:35:28.591Z,13.20
2019-05-07T13:45:31.771Z,10.72
2019-05-07T13:55:34.687Z,12.78
2019-05-07T14:05:36.838Z,12.30
2019-05-07T14:15:38.807Z,13.43
2019-05-07T14:25:41.916Z,16.47
2019-05-07T14:35:44.034Z,14.68
2019-05-07T14:45:45.987Z,22.10
2019-05-07T14:55:48.003Z,10.58
2019-05-07T15:05:49.932Z,13.78
2019-05-07T15:15:52.519Z,10.00
2019-05-07T15:25:55.912Z,14.65
2019-05-07T15:35:57.891Z,15.63
2019-05-07T15:46:01.837Z,9.08
2019-05-07T15:56:03.847Z,13.95
2019-05-07T16:06:06.157Z,8.35
2019-05-07T16:26:09.484Z,36.00
2019-05-07T16:36:12.604Z,22.60
2019-05-07T16:46:16.467Z,20.00
2019-05-07T16:56:18.473Z,17.07
2019-05-07T17:06:24.770Z,11.70
2019-05-07T17:16:24.286Z,15.68
2019-05-07T17:26:26.339Z,21.40
2019-05-07T17:36:28.315Z,13.07
2019-05-07T17:46:32.292Z,12.77
2019-05-07T17:56:34.087Z,12.90
2019-05-07T18:06:36.074Z,9.47
2019-05-07T18:16:38.067Z,10.70
2019-05-07T18:26:42.176Z,12.50
2019-05-07T18:36:44.139Z,11.35
2019-05-07T18:46:46.135Z,12.07
2019-05-07T18:56:48.101Z,36.63
2019-05-07T19:06:51.728Z,11.07
2019-05-07T19:16:53.976Z,14.98
2019-05-07T19:26:55.931Z,11.93
2019-05-07T19:36:57.978Z,15.43
2019-05-07T19:47:01.946Z,10.73
2019-05-07T19:57:03.754Z,14.58
2019-05-07T20:07:05.844Z,12.87
2019-05-07T20:17:07.916Z,16.60
2019-05-07T20:27:09.927Z,8.70
2019-05-07T20:37:12.936Z,14.90
2019-05-07T20:47:15.170Z,9.63
2019-05-07T20:57:17.136Z,9.80
2019-05-07T21:07:19.216Z,11.53
2019-05-07T21:17:22.694Z,13.40
2019-05-07T21:27:24.947Z,11.30
2019-05-07T21:37:26.886Z,16.30
2019-05-07T21:47:28.875Z,13.95
2019-05-07T21:57:32.935Z,13.93
2019-05-07T22:07:34.606Z,11.08
2019-05-07T22:17:36.607Z,12.83
2019-05-07T22:27:38.573Z,9.70
2019-05-07T22:37:40.620Z,7.47
2019-05-07T22:47:42.759Z,10.50
2019-05-07T22:57:44.755Z,10.37
2019-05-07T23:07:46.851Z,10.33
2019-05-07T23:17:50.923Z,10.27
2019-05-07T23:27:52.874Z,7.40
2019-05-07T23:37:54.838Z,12.80
2019-05-07T23:47:56.907Z,8.07
2019-05-07T23:57:58.846Z,9.93
